Time;durP1;ratioP1;P1;durP2;ratioP2;P2;SDS_P1;SDS_P2;PMS_P1;PMS_P2;Temp;Humidity;BMP_temperature;BMP_pressure;BME280_temperature;BME280_humidity;BME280_pressure;Samples;Min_cycle;Max_cycle;Signal;HPM_P1;HPM_P2
2023/04/11 00:01:01;;;;;;;4.20;2.33;;;10.50;55.50;;;;;;5094809;28;20188;-69
2023/04/11 00:03:28;;;;;;;3.47;2.30;;;10.40;55.30;;;;;;5094658;28;20217;-70
2023/04/11 00:05:57;;;;;;;4.53;3.30;;;10.40;55.10;;;;;;5094888;28;20185;-70
2023/04/11 00:08:24;;;;;;;3.70;2.40;;;10.40;55.00;;;;;;5095393;28;20193;-69
2023/04/11 00:10:51;;;;;;;2.83;2.00;;;10.40;55.30;;;;;;5094408;28;20185;-70
2023/04/11 00:13:19;;;;;;;3.20;2.20;;;10.40;55.00;;;;;;5094604;28;20651;-69
2023/04/11 00:15:46;;;;;;;3.70;2.35;;;10.40;54.00;;;;;;5094666;28;20288;-70
2023/04/11 00:18:13;;;;;;;3.08;1.92;;;10.40;53.80;;;;;;5094227;28;20691;-69
2023/04/11 00:20:41;;;;;;;3.70;2.25;;;10.50;54.20;;;;;;5094752;28;20193;-70
2023/04/11 00:23:09;;;;;;;4.40;2.55;;;10.50;54.30;;;;;;5094431;28;20196;-70
2023/04/11 00:25:37;;;;;;;7.55;2.63;;;10.50;54.30;;;;;;5094465;28;20196;-69
2023/04/11 00:28:04;;;;;;;3.60;2.28;;;10.50;53.90;;;;;;5093991;28;20268;-70
2023/04/11 00:30:31;;;;;;;4.10;2.45;;;10.60;53.50;;;;;;5093954;28;20238;-70
2023/04/11 00:32:58;;;;;;;4.43;2.03;;;10.60;53.20;;;;;;5094404;28;20595;-70
2023/04/11 00:35:25;;;;;;;3.10;1.80;;;10.60;53.20;;;;;;5094357;28;20181;-69
2023/04/11 00:37:54;;;;;;;2.80;1.70;;;10.70;53.00;;;;;;5093730;28;20224;-70
2023/04/11 00:40:23;;;;;;;3.03;1.83;;;10.70;52.10;;;;;;5093990;28;20181;-70
2023/04/11 00:42:50;;;;;;;3.50;1.88;;;10.70;52.00;;;;;;5094214;28;20208;-69
2023/04/11 00:45:17;;;;;;;3.00;2.08;;;10.70;51.90;;;;;;5093834;28;20543;-69
2023/04/11 00:47:44;;;;;;;4.63;2.15;;;10.70;51.60;;;;;;5093783;28;20200;-69
2023/04/11 00:50:14;;;;;;;2.65;1.50;;;10.70;51.40;;;;;;5093653;28;20185;-69
2023/04/11 00:52:45;;;;;;;4.80;1.70;;;10.70;51.40;;;;;;5093918;28;20280;-70
2023/04/11 00:55:12;;;;;;;2.47;1.70;;;10.70;51.60;;;;;;5093579;28;20196;-69
2023/04/11 00:57:41;;;;;;;2.75;1.70;;;10.70;51.50;;;;;;5093381;28;20208;-69
2023/04/11 01:00:10;;;;;;;2.85;1.80;;;10.70;51.90;;;;;;5093194;28;20229;-70
2023/04/11 01:02:41;;;;;;;3.17;2.30;;;10.70;51.70;;;;;;5093473;28;20189;-71
2023/04/11 01:05:13;;;;;;;2.97;1.58;;;10.80;50.90;;;;;;5093466;28;20543;-69
2023/04/11 01:07:43;;;;;;;2.85;1.92;;;10.80;50.90;;;;;;5093665;28;20547;-70
2023/04/11 01:10:10;;;;;;;2.60;1.58;;;10.80;51.00;;;;;;5093097;28;20187;-69
2023/04/11 01:12:40;;;;;;;3.97;2.03;;;10.80;51.20;;;;;;5093654;28;20314;-69
2023/04/11 01:15:08;;;;;;;3.47;1.80;;;10.80;51.10;;;;;;5092997;28;20196;-69
2023/04/11 01:17:35;;;;;;;2.25;1.35;;;10.80;50.90;;;;;;5092936;28;20262;-70
2023/04/11 01:20:06;;;;;;;2.97;1.90;;;10.80;51.10;;;;;;5093228;28;20189;-70
2023/04/11 01:22:34;;;;;;;3.75;2.67;;;10.70;50.90;;;;;;5093575;28;20196;-70
2023/04/11 01:25:03;;;;;;;3.15;2.10;;;10.70;50.70;;;;;;5092944;28;20264;-70
2023/04/11 01:27:32;;;;;;;3.25;2.03;;;10.70;50.90;;;;;;5092921;28;20188;-70
2023/04/11 01:30:00;;;;;;;4.57;1.98;;;10.70;51.10;;;;;;5093233;28;20542;-70
2023/04/11 01:32:27;;;;;;;3.20;2.00;;;10.80;51.40;;;;;;5092786;28;20189;-70
2023/04/11 01:34:59;;;;;;;2.78;1.95;;;10.80;51.60;;;;;;5093738;28;20189;-69
2023/04/11 01:37:27;;;;;;;3.55;1.80;;;10.80;52.30;;;;;;5092784;28;20219;-69
2023/04/11 01:39:54;;;;;;;3.38;2.15;;;10.80;52.20;;;;;;5092607;28;20196;-70
2023/04/11 01:42:23;;;;;;;3.45;1.90;;;10.80;52.10;;;;;;5092695;28;20204;-70
2023/04/11 01:44:51;;;;;;;2.90;1.90;;;10.80;51.90;;;;;;5093238;28;20196;-69
2023/04/11 01:47:18;;;;;;;2.85;1.85;;;10.80;52.50;;;;;;5092577;28;20189;-70
2023/04/11 01:49:45;;;;;;;4.45;2.10;;;10.80;54.10;;;;;;5093044;28;20185;-70
2023/04/11 01:52:13;;;;;;;3.50;2.00;;;10.80;54.80;;;;;;5092310;28;20532;-69
2023/04/11 01:54:40;;;;;;;3.80;2.47;;;10.80;55.00;;;;;;5093095;28;20204;-70
2023/04/11 01:57:07;;;;;;;3.40;2.10;;;10.80;56.10;;;;;;5091945;28;20185;-70
2023/04/11 01:59:35;;;;;;;8.65;2.75;;;10.80;56.60;;;;;;5092832;28;20274;-69
2023/04/11 02:02:02;;;;;;;3.60;1.77;;;10.70;56.60;;;;;;5092484;28;20262;-70
2023/04/11 02:04:29;;;;;;;4.38;2.50;;;10.70;56.10;;;;;;5092810;28;20597;-70
2023/04/11 02:06:57;;;;;;;3.35;2.30;;;10.70;55.90;;;;;;5092249;28;20242;-70
2023/04/11 02:09:24;;;;;;;2.50;1.70;;;10.70;56.30;;;;;;5093007;28;20185;-70
2023/04/11 02:11:51;;;;;;;3.10;2.00;;;10.80;56.90;;;;;;5092700;28;20321;-70
2023/04/11 02:14:20;;;;;;;3.60;2.25;;;10.80;57.10;;;;;;5092671;28;20193;-70
2023/04/11 02:16:54;;;;;;;4.05;1.70;;;10.80;56.60;;;;;;5091933;28;20196;-70
2023/04/11 02:19:22;;;;;;;4.30;2.03;;;10.80;56.90;;;;;;5092492;28;20216;-70
2023/04/11 02:21:49;;;;;;;3.17;1.92;;;10.80;57.90;;;;;;5092202;28;20292;-69
2023/04/11 02:24:16;;;;;;;2.83;1.70;;;10.70;58.30;;;;;;5092633;28;20547;-69
2023/04/11 02:26:43;;;;;;;2.72;1.77;;;10.70;58.50;;;;;;5092439;28;20597;-70
2023/04/11 02:29:10;;;;;;;3.30;1.50;;;10.70;57.20;;;;;;5092078;28;20185;-70
2023/04/11 02:31:38;;;;;;;2.80;1.60;;;10.80;54.50;;;;;;5091833;28;20271;-69
2023/04/11 02:34:07;;;;;;;3.40;1.90;;;10.80;54.30;;;;;;5091436;28;20612;-70
2023/04/11 02:36:34;;;;;;;3.45;1.95;;;10.80;56.00;;;;;;5092370;28;20189;-70
2023/04/11 02:39:01;;;;;;;6.15;3.88;;;10.80;55.90;;;;;;5092300;28;20204;-70
2023/04/11 02:41:28;;;;;;;3.80;2.50;;;10.80;57.20;;;;;;5091834;28;20197;-70
2023/04/11 02:43:55;;;;;;;3.63;2.10;;;10.80;56.70;;;;;;5092122;28;20697;-70
2023/04/11 02:46:22;;;;;;;3.60;2.35;;;10.90;55.40;;;;;;5092253;28;20185;-70
2023/04/11 02:48:49;;;;;;;7.47;2.20;;;11.00;54.90;;;;;;5092186;28;20268;-70
2023/04/11 02:51:18;;;;;;;3.35;1.95;;;11.00;54.30;;;;;;5095915;28;20192;-70
2023/04/11 02:53:45;;;;;;;4.53;3.70;;;11.00;53.90;;;;;;5096265;28;20193;-70
2023/04/11 02:56:17;;;;;;;4.07;2.50;;;11.00;54.40;;;;;;5095978;28;20588;-70
2023/04/11 02:58:44;;;;;;;3.63;2.30;;;10.90;54.70;;;;;;5096234;28;20349;-70
2023/04/11 03:01:13;;;;;;;2.92;1.67;;;10.90;54.60;;;;;;5095189;28;20219;-70
2023/04/11 03:03:40;;;;;;;5.35;2.00;;;10.90;54.10;;;;;;5095953;28;20651;-70
2023/04/11 03:06:08;;;;;;;2.20;1.40;;;10.90;53.40;;;;;;5095878;28;20271;-69
2023/04/11 03:08:37;;;;;;;3.30;2.10;;;10.90;52.80;;;;;;5096078;28;20189;-70
2023/04/11 03:11:05;;;;;;;2.10;1.60;;;11.00;51.80;;;;;;5095093;28;20547;-71
2023/04/11 03:13:32;;;;;;;2.45;1.58;;;11.00;51.10;;;;;;5096086;28;20189;-70
2023/04/11 03:16:00;;;;;;;3.55;1.55;;;11.00;51.20;;;;;;5095696;28;20192;-70
2023/04/11 03:18:27;;;;;;;3.20;1.20;;;11.00;51.20;;;;;;5095700;28;20259;-70
2023/04/11 03:20:54;;;;;;;3.10;1.25;;;11.00;50.60;;;;;;5094999;28;20773;-69
2023/04/11 03:23:21;;;;;;;2.95;1.65;;;11.10;50.50;;;;;;5095761;28;20261;-70
2023/04/11 03:25:52;;;;;;;4.13;2.30;;;11.20;50.30;;;;;;5095383;28;20189;-70
2023/04/11 03:28:19;;;;;;;2.58;1.42;;;11.20;49.80;;;;;;5095577;28;20224;-69
2023/04/11 03:30:47;;;;;;;2.38;1.30;;;11.20;50.30;;;;;;5094695;28;20185;-70
2023/04/11 03:33:14;;;;;;;2.22;1.10;;;11.20;50.30;;;;;;5095117;28;20268;-69
2023/04/11 03:35:41;;;;;;;4.60;1.83;;;11.30;50.20;;;;;;5095604;28;20189;-70
2023/04/11 03:38:08;;;;;;;7.57;1.67;;;11.30;50.00;;;;;;5095170;28;20216;-69
2023/04/11 03:40:35;;;;;;;4.68;2.17;;;11.30;49.30;;;;;;5095362;28;20250;-70
2023/04/11 03:43:04;;;;;;;3.33;1.90;;;11.40;48.60;;;;;;5095073;28;20181;-69
2023/04/11 03:45:31;;;;;;;2.50;1.50;;;11.40;47.90;;;;;;5095378;28;20208;-70
2023/04/11 03:47:58;;;;;;;3.28;1.40;;;11.50;47.20;;;;;;5094833;28;20643;-70
2023/04/11 03:50:25;;;;;;;2.00;1.27;;;11.70;46.50;;;;;;5095447;28;20529;-69
2023/04/11 03:52:53;;;;;;;2.90;1.85;;;11.80;46.90;;;;;;5094931;28;20234;-70
2023/04/11 03:55:20;;;;;;;4.90;1.38;;;11.90;47.00;;;;;;5095317;28;20528;-70
2023/04/11 03:57:47;;;;;;;3.00;1.63;;;11.90;46.80;;;;;;5094057;28;20205;-69
2023/04/11 04:00:16;;;;;;;2.47;1.33;;;12.00;46.40;;;;;;5094500;28;20220;-70
2023/04/11 04:02:43;;;;;;;4.05;1.60;;;12.10;46.40;;;;;;5094066;28;20185;-70
2023/04/11 04:05:10;;;;;;;3.60;1.30;;;12.20;46.60;;;;;;5095035;28;20250;-70
2023/04/11 04:07:37;;;;;;;2.65;1.27;;;12.20;46.50;;;;;;5094557;28;20556;-70
2023/04/11 04:10:05;;;;;;;3.50;1.50;;;12.30;46.00;;;;;;5093752;28;20178;-70
2023/04/11 04:12:33;;;;;;;4.43;1.50;;;12.40;46.10;;;;;;5094551;28;20188;-70
2023/04/11 04:15:01;;;;;;;4.10;1.58;;;12.40;45.70;;;;;;5083846;28;20196;-70
2023/04/11 04:17:29;;;;;;;7.68;1.65;;;12.40;45.90;;;;;;5095040;28;20246;-70
2023/04/11 04:19:56;;;;;;;5.55;1.50;;;12.40;46.00;;;;;;5094346;28;20273;-70
2023/04/11 04:22:25;;;;;;;2.42;1.30;;;12.40;45.90;;;;;;5094344;28;20185;-70
2023/04/11 04:24:52;;;;;;;2.85;1.65;;;12.30;46.00;;;;;;5094828;28;20185;-72
2023/04/11 04:27:19;;;;;;;3.15;1.50;;;12.40;45.70;;;;;;5093910;28;20193;-70
2023/04/11 04:29:47;;;;;;;2.75;1.35;;;12.40;44.90;;;;;;5094294;28;20189;-70
2023/04/11 04:32:19;;;;;;;2.92;1.65;;;12.50;44.70;;;;;;5094428;28;20185;-70
2023/04/11 04:34:53;;;;;;;3.95;1.58;;;12.60;44.70;;;;;;5094323;28;20184;-70
2023/04/11 04:37:22;;;;;;;3.42;1.80;;;12.60;44.90;;;;;;5094559;28;20214;-70
2023/04/11 04:39:53;;;;;;;2.63;1.13;;;12.60;45.00;;;;;;5093823;28;20209;-70
2023/04/11 04:42:24;;;;;;;2.60;1.60;;;12.60;45.10;;;;;;5094758;28;20607;-70
2023/04/11 04:44:52;;;;;;;2.75;1.83;;;12.70;45.30;;;;;;5095148;28;20208;-70
2023/04/11 04:47:22;;;;;;;2.85;1.67;;;12.80;44.70;;;;;;5097928;28;20197;-70
2023/04/11 04:49:55;;;;;;;3.03;1.70;;;13.00;44.80;;;;;;5099251;28;20185;-70
2023/04/11 04:52:23;;;;;;;2.67;1.58;;;13.10;45.00;;;;;;5098557;28;20647;-70
2023/04/11 04:54:50;;;;;;;3.30;1.35;;;13.10;45.50;;;;;;5097958;28;20197;-70
2023/04/11 04:57:17;;;;;;;5.80;1.52;;;13.20;46.40;;;;;;5100340;28;20197;-71
2023/04/11 04:59:45;;;;;;;3.75;1.70;;;13.20;46.20;;;;;;5103008;28;20216;-70
2023/04/11 05:02:12;;;;;;;3.88;1.50;;;13.30;46.70;;;;;;5097803;28;20220;-70
2023/04/11 05:04:40;;;;;;;2.50;1.60;;;13.30;48.00;;;;;;5097650;28;20193;-70
2023/04/11 05:07:09;;;;;;;2.60;1.40;;;13.40;48.80;;;;;;5099856;28;20590;-70
2023/04/11 05:09:36;;;;;;;3.47;1.50;;;13.40;50.20;;;;;;5097180;28;20189;-70
2023/04/11 05:12:04;;;;;;;3.25;1.73;;;13.40;52.50;;;;;;5096970;28;20184;-71
2023/04/11 05:14:31;;;;;;;3.53;1.52;;;13.30;54.20;;;;;;5097029;28;20291;-70
2023/04/11 05:16:58;;;;;;;7.43;1.67;;;13.20;54.50;;;;;;5101224;28;20193;-71
2023/04/11 05:19:25;;;;;;;5.90;1.70;;;13.10;56.70;;;;;;5101053;28;20299;-70
2023/04/11 05:21:55;;;;;;;4.78;2.15;;;13.10;57.60;;;;;;5100631;28;20189;-70
2023/04/11 05:24:24;;;;;;;4.50;1.52;;;13.00;57.80;;;;;;5097143;28;20193;-70
2023/04/11 05:26:51;;;;;;;2.80;1.50;;;12.90;58.60;;;;;;5100101;28;20199;-70
2023/04/11 05:29:21;;;;;;;3.03;1.80;;;12.80;59.40;;;;;;5097226;28;20193;-70
2023/04/11 05:31:48;;;;;;;3.10;1.98;;;12.70;60.90;;;;;;5096221;28;20184;-70
2023/04/11 05:34:15;;;;;;;3.05;1.80;;;12.60;60.90;;;;;;5099446;28;20274;-70
2023/04/11 05:36:45;;;;;;;3.85;2.05;;;12.50;61.40;;;;;;5098250;28;20209;-70
2023/04/11 05:39:12;;;;;;;3.70;1.85;;;12.50;62.20;;;;;;5096270;28;20212;-70
2023/04/11 05:41:42;;;;;;;4.55;2.30;;;12.40;63.50;;;;;;5099500;28;20188;-70
2023/04/11 05:44:08;;;;;;;3.92;1.40;;;12.40;63.20;;;;;;5096386;28;20602;-70
2023/04/11 05:46:36;;;;;;;2.95;1.73;;;12.40;64.00;;;;;;5090122;28;20592;-70
2023/04/11 05:49:03;;;;;;;3.03;1.85;;;12.40;64.90;;;;;;5100472;28;20185;-70
2023/04/11 05:51:30;;;;;;;3.80;2.28;;;12.30;66.50;;;;;;5098996;28;20215;-70
2023/04/11 05:53:57;;;;;;;4.38;2.30;;;12.30;68.30;;;;;;5095272;28;20185;-70
2023/04/11 05:56:24;;;;;;;2.70;2.33;;;12.20;69.20;;;;;;5096150;28;20189;-71
2023/04/11 05:58:52;;;;;;;3.25;2.15;;;12.20;71.30;;;;;;5099453;28;21072;-70
2023/04/11 06:01:19;;;;;;;3.10;1.92;;;12.10;72.60;;;;;;5098060;28;20731;-70
2023/04/11 06:03:47;;;;;;;3.75;2.08;;;12.10;72.90;;;;;;5095519;28;20671;-70
2023/04/11 06:06:14;;;;;;;3.90;2.42;;;12.20;73.30;;;;;;5099531;28;20189;-70
2023/04/11 06:08:41;;;;;;;3.47;2.28;;;12.10;73.90;;;;;;5095271;28;20714;-70
2023/04/11 06:11:10;;;;;;;2.85;1.92;;;12.00;74.50;;;;;;5098221;28;20204;-71
2023/04/11 06:13:37;;;;;;;3.45;2.15;;;12.00;75.10;;;;;;5097722;28;20702;-70
2023/04/11 06:16:06;;;;;;;3.17;2.03;;;11.90;76.00;;;;;;5099701;28;20185;-71
2023/04/11 06:18:33;;;;;;;3.33;2.03;;;11.80;76.90;;;;;;5097926;28;20608;-70
2023/04/11 06:21:00;;;;;;;8.07;2.00;;;11.80;78.40;;;;;;5093907;28;20245;-70
2023/04/11 06:23:28;;;;;;;3.83;2.00;;;11.80;79.20;;;;;;5101892;28;20181;-70
2023/04/11 06:25:54;;;;;;;3.75;2.25;;;11.70;80.00;;;;;;5100010;28;20275;-70
2023/04/11 06:28:21;;;;;;;2.65;1.90;;;11.60;81.30;;;;;;5098499;28;20631;-70
2023/04/11 06:30:49;;;;;;;4.70;2.50;;;11.60;81.90;;;;;;5089400;28;20578;-69
2023/04/11 06:33:17;;;;;;;3.30;1.98;;;11.50;83.50;;;;;;5098947;28;20189;-69
2023/04/11 06:35:44;;;;;;;3.90;1.83;;;11.50;83.70;;;;;;5097755;28;20228;-69
2023/04/11 06:38:11;;;;;;;3.72;2.40;;;11.50;84.70;;;;;;5098783;28;20184;-70
2023/04/11 06:40:38;;;;;;;4.53;2.17;;;11.50;85.00;;;;;;5092629;28;20252;-70
2023/04/11 06:43:05;;;;;;;3.20;2.22;;;11.50;84.90;;;;;;5098872;28;20180;-69
2023/04/11 06:45:32;;;;;;;5.72;2.28;;;11.50;85.70;;;;;;5095874;28;20189;-69
2023/04/11 06:47:59;;;;;;;4.25;1.90;;;11.40;87.30;;;;;;5099356;28;20611;-70
2023/04/11 06:50:28;;;;;;;3.08;1.60;;;11.40;87.30;;;;;;5100006;28;20193;-71
2023/04/11 06:52:57;;;;;;;2.70;1.60;;;11.30;87.40;;;;;;5095564;28;20197;-69
2023/04/11 06:55:24;;;;;;;2.25;1.40;;;11.30;87.50;;;;;;5098610;28;20284;-69
2023/04/11 06:57:51;;;;;;;3.15;2.08;;;11.30;88.30;;;;;;5096120;28;20231;-70
2023/04/11 07:00:19;;;;;;;3.10;1.95;;;11.30;87.90;;;;;;5097482;28;20579;-70
2023/04/11 07:02:46;;;;;;;3.63;1.35;;;11.30;89.20;;;;;;5098570;28;20300;-69
2023/04/11 07:05:13;;;;;;;3.38;1.80;;;11.30;88.30;;;;;;5097494;28;20247;-69
2023/04/11 07:07:41;;;;;;;4.05;1.30;;;11.30;88.00;;;;;;5099196;28;20188;-69
2023/04/11 07:10:09;;;;;;;2.10;1.00;;;11.20;87.20;;;;;;5095984;28;20193;-69
2023/04/11 07:12:36;;;;;;;2.50;1.10;;;11.20;87.20;;;;;;5099188;28;20185;-69
2023/04/11 07:15:04;;;;;;;2.42;1.27;;;11.20;86.30;;;;;;5096735;28;20247;-70
2023/04/11 07:17:31;;;;;;;1.98;0.90;;;11.20;86.90;;;;;;5100135;28;20193;-69
2023/04/11 07:19:58;;;;;;;2.33;1.35;;;11.30;86.30;;;;;;5097367;28;20220;-70
2023/04/11 07:22:25;;;;;;;2.17;1.00;;;11.30;86.10;;;;;;5098067;28;20653;-70
2023/04/11 07:24:56;;;;;;;1.73;0.80;;;11.30;86.50;;;;;;5095853;28;20242;-70
2023/04/11 07:27:25;;;;;;;2.38;1.00;;;11.30;86.70;;;;;;5093063;28;20650;-69
2023/04/11 07:29:52;;;;;;;2.80;0.90;;;11.30;87.00;;;;;;5098421;28;20200;-69
2023/04/11 07:32:19;;;;;;;2.30;1.20;;;11.30;86.50;;;;;;5095214;28;20189;-69
2023/04/11 07:34:46;;;;;;;1.95;0.93;;;11.30;88.10;;;;;;5095775;28;20193;-70
2023/04/11 07:37:13;;;;;;;2.15;1.13;;;11.30;87.00;;;;;;5101568;28;20231;-70
2023/04/11 07:39:40;;;;;;;2.47;1.10;;;11.20;87.40;;;;;;5098775;28;20647;-70
2023/04/11 07:42:08;;;;;;;2.33;0.90;;;11.20;87.80;;;;;;5103337;28;20602;-70
2023/04/11 07:44:35;;;;;;;1.70;0.90;;;11.20;88.60;;;;;;5099409;28;20227;-69
2023/04/11 07:47:02;;;;;;;2.47;1.38;;;11.30;89.30;;;;;;5102744;28;20595;-70
2023/04/11 07:49:29;;;;;;;1.80;0.90;;;11.20;88.60;;;;;;5099118;28;20708;-70
2023/04/11 07:51:56;;;;;;;2.08;1.00;;;11.30;88.80;;;;;;5103243;28;20197;-71
2023/04/11 07:54:24;;;;;;;1.63;0.68;;;11.30;88.40;;;;;;5103350;28;20188;-69
2023/04/11 07:56:51;;;;;;;2.13;0.70;;;11.30;88.20;;;;;;5098841;28;20193;-69
2023/04/11 07:59:19;;;;;;;1.50;0.55;;;11.30;89.20;;;;;;5098696;28;20286;-69
2023/04/11 08:01:46;;;;;;;1.98;0.95;;;11.40;89.20;;;;;;5103144;28;20672;-70
2023/04/11 08:04:13;;;;;;;2.97;0.80;;;11.40;90.00;;;;;;5099402;28;20215;-70
2023/04/11 08:06:40;;;;;;;1.60;0.70;;;11.40;90.20;;;;;;5101871;28;20662;-70
2023/04/11 08:09:07;;;;;;;1.70;0.73;;;11.40;90.40;;;;;;5098668;28;20239;-70
2023/04/11 08:11:34;;;;;;;1.80;0.80;;;11.30;89.40;;;;;;5102700;28;20231;-70
2023/04/11 08:14:01;;;;;;;2.25;0.70;;;11.20;86.40;;;;;;5098730;28;20246;-70
2023/04/11 08:16:29;;;;;;;4.18;0.73;;;11.00;85.90;;;;;;5101710;28;20184;-70
2023/04/11 08:18:57;;;;;;;1.98;0.90;;;11.00;85.50;;;;;;5098770;28;20223;-69
2023/04/11 08:21:24;;;;;;;1.90;0.70;;;11.00;86.40;;;;;;5102386;28;20307;-69
2023/04/11 08:23:51;;;;;;;1.60;0.70;;;10.90;87.70;;;;;;5098883;28;20287;-70
2023/04/11 08:26:19;;;;;;;1.60;0.60;;;10.90;88.30;;;;;;5102360;28;20200;-69
2023/04/11 08:28:46;;;;;;;2.13;0.70;;;10.80;87.90;;;;;;5098300;28;20228;-70
2023/04/11 08:31:14;;;;;;;2.00;0.80;;;10.70;88.70;;;;;;5101981;28;20249;-70
2023/04/11 08:33:42;;;;;;;1.58;0.60;;;10.70;89.00;;;;;;5098474;28;20193;-70
2023/04/11 08:36:10;;;;;;;1.92;0.80;;;10.70;89.40;;;;;;5101310;28;20246;-70
2023/04/11 08:38:37;;;;;;;4.50;0.60;;;10.80;90.00;;;;;;5098373;28;20560;-70
2023/04/11 08:41:04;;;;;;;2.55;0.70;;;10.80;90.20;;;;;;5102232;28;20605;-69
2023/04/11 08:43:33;;;;;;;1.70;0.60;;;10.80;90.10;;;;;;5102115;28;20196;-70
2023/04/11 08:46:02;;;;;;;2.33;0.80;;;10.80;90.10;;;;;;5097834;28;20606;-70
2023/04/11 08:48:29;;;;;;;1.50;0.70;;;10.80;90.20;;;;;;5097146;28;20322;-70
2023/04/11 08:50:57;;;;;;;2.83;1.13;;;10.80;90.10;;;;;;5102175;28;20185;-70
2023/04/11 08:53:27;;;;;;;2.08;0.90;;;10.80;90.40;;;;;;5094915;28;20543;-70
2023/04/11 08:55:53;;;;;;;2.60;1.10;;;10.80;90.70;;;;;;5100522;28;20260;-69
2023/04/11 08:58:21;;;;;;;1.85;0.98;;;10.90;91.00;;;;;;5097390;28;20193;-69
2023/04/11 09:00:48;;;;;;;1.80;0.93;;;10.90;91.20;;;;;;5097576;28;20225;-70
2023/04/11 09:03:16;;;;;;;3.10;1.10;;;11.00;90.90;;;;;;5101435;28;20196;-69
2023/04/11 09:05:45;;;;;;;1.70;0.80;;;11.00;91.20;;;;;;5097487;28;20200;-69
2023/04/11 09:08:14;;;;;;;1.80;0.80;;;11.10;90.90;;;;;;5101798;28;20193;-70
2023/04/11 09:10:44;;;;;;;1.60;0.70;;;11.10;90.40;;;;;;5094209;28;20265;-70
2023/04/11 09:13:22;;;;;;;1.60;0.68;;;11.20;89.20;;;;;;5100209;28;20249;-69
2023/04/11 09:16:04;;;;;;;1.60;0.70;;;11.10;86.00;;;;;;5097489;28;20639;-70
2023/04/11 09:18:32;;;;;;;2.17;0.90;;;11.10;85.80;;;;;;5098861;28;20193;-70
2023/04/11 09:21:00;;;;;;;2.15;0.70;;;11.10;86.10;;;;;;5097193;28;20682;-71
2023/04/11 09:23:29;;;;;;;2.15;0.80;;;11.10;87.10;;;;;;5098745;28;20189;-70
2023/04/11 09:25:56;;;;;;;1.90;0.90;;;11.10;88.10;;;;;;5099269;28;20215;-70
2023/04/11 09:28:24;;;;;;;2.90;1.20;;;11.10;87.80;;;;;;5096934;28;20231;-71
2023/04/11 09:30:52;;;;;;;2.20;0.95;;;11.10;87.50;;;;;;5096786;28;20189;-70
2023/04/11 09:33:21;;;;;;;3.38;2.10;;;11.10;88.40;;;;;;5099230;28;20590;-70
2023/04/11 09:35:49;;;;;;;3.42;1.52;;;11.10;87.90;;;;;;5098445;28;20188;-70
2023/04/11 09:38:29;;;;;;;2.60;0.98;;;11.20;87.90;;;;;;5100899;28;20215;-71
2023/04/11 09:40:57;;;;;;;2.72;0.98;;;11.20;86.90;;;;;;5100222;28;20255;-71
2023/04/11 09:43:24;;;;;;;2.13;0.88;;;11.30;86.00;;;;;;5097724;28;20193;-70
2023/04/11 09:46:09;;;;;;;2.35;1.20;;;11.30;83.50;;;;;;5093336;28;20235;-69
2023/04/11 09:48:37;;;;;;;2.67;1.27;;;11.30;83.50;;;;;;5097369;27;20204;-71
2023/04/11 09:51:05;;;;;;;2.92;1.10;;;11.30;83.60;;;;;;5096634;28;20227;-70
2023/04/11 09:53:36;;;;;;;1.80;0.60;;;11.30;82.40;;;;;;5099486;28;20193;-70
2023/04/11 09:56:03;;;;;;;2.03;0.80;;;11.40;82.60;;;;;;5097864;28;20197;-70
2023/04/11 09:58:33;;;;;;;4.50;1.35;;;11.30;82.60;;;;;;5096608;28;20197;-70
2023/04/11 10:01:00;;;;;;;3.83;1.10;;;11.40;83.60;;;;;;5099463;28;20324;-70
2023/04/11 10:03:29;;;;;;;2.40;0.80;;;11.40;82.20;;;;;;5096453;28;20232;-70
2023/04/11 10:05:57;;;;;;;2.20;0.88;;;11.50;81.10;;;;;;5099357;28;20197;-73
2023/04/11 10:08:31;;;;;;;7.38;1.05;;;11.50;75.80;;;;;;5100534;28;20554;-69
2023/04/11 10:11:01;;;;;;;2.92;0.88;;;11.40;72.40;;;;;;5100345;28;20542;-70
2023/04/11 10:13:41;;;;;;;5.00;1.50;;;11.20;71.20;;;;;;5096290;28;20231;-70
2023/04/11 10:16:11;;;;;;;2.72;1.52;;;11.10;71.30;;;;;;5096478;28;20235;-70
2023/04/11 10:18:59;;;;;;;2.85;1.00;;;10.90;72.10;;;;;;5100617;28;20300;-70
2023/04/11 10:21:41;;;;;;;7.70;4.93;;;10.90;73.60;;;;;;5100860;28;20237;-70
2023/04/11 10:24:10;;;;;;;9.30;6.13;;;10.80;75.20;;;;;;5098591;28;20823;-70
2023/04/11 10:26:48;;;;;;;6.65;4.43;;;10.50;75.10;;;;;;5096398;28;20566;-70
2023/04/11 10:29:51;;;;;;;9.50;6.22;;;10.40;77.50;;;;;;5095217;28;20283;-69
2023/04/11 10:32:23;;;;;;;5.38;2.40;;;10.30;79.80;;;;;;5098106;28;20188;-70
2023/04/11 10:35:29;;;;;;;3.63;1.40;;;10.30;79.10;;;;;;5096236;28;20634;-70
2023/04/11 10:37:56;;;;;;;2.60;1.42;;;10.30;78.30;;;;;;5096113;28;20706;-70
2023/04/11 10:40:24;;;;;;;3.10;1.20;;;10.30;76.60;;;;;;5097802;28;20278;-70
2023/04/11 10:42:53;;;;;;;3.38;1.40;;;10.30;76.20;;;;;;5100376;28;20257;-70
2023/04/11 10:45:22;;;;;;;9.77;2.92;;;10.40;76.20;;;;;;5096040;28;20232;-69
2023/04/11 10:48:09;;;;;;;6.20;3.28;;;10.40;76.40;;;;;;5098652;28;20262;-70
2023/04/11 10:50:44;;;;;;;3.90;1.50;;;10.40;78.30;;;;;;5094543;28;20188;-70
2023/04/11 10:53:35;;;;;;;5.15;3.55;;;10.40;79.00;;;;;;5097130;28;20196;-70
2023/04/11 10:56:02;;;;;;;5.28;2.80;;;10.40;79.20;;;;;;5098821;28;20237;-70
2023/04/11 10:58:38;;;;;;;11.35;6.15;;;10.40;76.20;;;;;;5100093;28;20203;-68
2023/04/11 11:01:20;;;;;;;3.20;1.70;;;10.30;77.10;;;;;;5098953;28;20258;-68
2023/04/11 11:03:55;;;;;;;3.75;2.13;;;10.40;76.50;;;;;;5100204;28;20193;-69
2023/04/11 11:06:23;;;;;;;3.10;1.50;;;10.40;75.60;;;;;;5099248;28;20192;-69
2023/04/11 11:08:50;;;;;;;6.97;4.55;;;10.40;77.10;;;;;;5091622;28;20223;-69
2023/04/11 11:11:18;;;;;;;4.38;3.00;;;10.50;77.00;;;;;;5096937;28;20224;-69
2023/04/11 11:13:49;;;;;;;10.02;5.10;;;10.60;77.00;;;;;;5100981;28;20237;-68
2023/04/11 11:16:17;;;;;;;5.03;2.78;;;10.70;76.30;;;;;;5102306;28;20192;-70
2023/04/11 11:18:49;;;;;;;9.45;5.32;;;10.80;75.80;;;;;;5099787;28;20555;-69
2023/04/11 11:21:18;;;;;;;4.38;2.45;;;10.80;75.30;;;;;;5102170;28;20275;-69
2023/04/11 11:23:56;;;;;;;4.15;2.30;;;11.00;74.90;;;;;;5097199;28;20201;-68
2023/04/11 11:26:24;;;;;;;2.10;1.15;;;11.20;75.80;;;;;;5102265;28;20216;-69
2023/04/11 11:28:53;;;;;;;2.78;1.40;;;11.50;74.10;;;;;;5100111;28;20191;-69
2023/04/11 11:31:20;;;;;;;3.50;1.10;;;11.60;72.40;;;;;;5102645;28;20195;-70
2023/04/11 11:33:47;;;;;;;2.70;1.15;;;11.80;71.20;;;;;;5095898;28;20193;-70
2023/04/11 11:36:15;;;;;;;4.45;1.50;;;11.90;70.00;;;;;;5102217;28;20559;-69
2023/04/11 11:38:42;;;;;;;2.10;1.13;;;11.90;68.70;;;;;;5099404;28;20211;-69
2023/04/11 11:41:09;;;;;;;8.05;1.10;;;11.80;67.20;;;;;;5099019;28;20613;-71
2023/04/11 11:43:37;;;;;;;2.40;1.00;;;11.80;67.50;;;;;;5100211;28;20189;-70
2023/04/11 11:46:14;;;;;;;2.63;1.25;;;11.90;68.40;;;;;;5101496;28;20197;-69
2023/04/11 11:48:42;;;;;;;1.80;0.70;;;11.80;67.40;;;;;;5098901;28;20296;-70
2023/04/11 11:51:10;;;;;;;2.13;0.80;;;11.70;67.60;;;;;;5102753;28;20569;-69
2023/04/11 11:53:37;;;;;;;1.90;0.80;;;11.80;66.70;;;;;;5099238;28;20277;-69
2023/04/11 11:56:15;;;;;;;3.85;1.02;;;11.90;66.70;;;;;;5103472;28;20216;-69
2023/04/11 11:58:45;;;;;;;2.30;1.08;;;11.80;67.60;;;;;;5101654;28;20622;-69
2023/04/11 12:01:17;;;;;;;4.32;1.35;;;11.80;68.50;;;;;;5098895;28;20654;-69
2023/04/11 12:03:44;;;;;;;2.55;1.00;;;11.90;66.40;;;;;;5103156;28;20196;-69
2023/04/11 12:06:12;;;;;;;4.28;1.00;;;11.90;67.50;;;;;;5099141;28;20197;-68
2023/04/11 12:08:48;;;;;;;3.33;1.00;;;11.90;67.70;;;;;;5099235;28;20197;-69
2023/04/11 12:11:17;;;;;;;2.13;0.93;;;12.10;68.10;;;;;;5098952;28;20570;-69
2023/04/11 12:13:45;;;;;;;2.45;1.08;;;12.20;67.50;;;;;;5101127;28;20188;-69
2023/04/11 12:16:12;;;;;;;1.92;0.80;;;12.20;63.90;;;;;;5101570;28;20291;-69
2023/04/11 12:18:42;;;;;;;4.65;1.20;;;12.10;65.20;;;;;;5098744;28;20181;-69
2023/04/11 12:21:09;;;;;;;3.25;0.70;;;12.10;65.20;;;;;;5099227;28;20550;-69
2023/04/11 12:23:36;;;;;;;2.30;1.10;;;12.10;65.20;;;;;;5101302;28;20219;-69
2023/04/11 12:26:03;;;;;;;2.30;1.05;;;12.10;66.10;;;;;;5098669;28;20246;-69
2023/04/11 12:28:30;;;;;;;2.20;1.02;;;12.10;67.80;;;;;;5102692;28;20232;-70
2023/04/11 12:30:57;;;;;;;3.13;1.10;;;12.10;66.70;;;;;;5098335;28;20185;-70
2023/04/11 12:33:24;;;;;;;3.05;0.88;;;12.00;67.40;;;;;;5100247;28;20620;-69
2023/04/11 12:35:52;;;;;;;5.07;1.20;;;12.00;67.00;;;;;;5100718;28;20232;-69
2023/04/11 12:38:19;;;;;;;2.05;0.80;;;12.00;64.70;;;;;;5098441;28;20229;-69
2023/04/11 12:40:46;;;;;;;2.40;1.20;;;12.00;63.80;;;;;;5098787;28;20185;-69
2023/04/11 12:43:13;;;;;;;4.95;1.05;;;11.90;64.80;;;;;;5101944;28;20184;-69
2023/04/11 12:45:41;;;;;;;3.50;1.42;;;11.90;63.60;;;;;;5098400;28;20216;-69
2023/04/11 12:48:09;;;;;;;1.90;0.93;;;11.80;64.30;;;;;;5102501;28;20212;-70
2023/04/11 12:50:36;;;;;;;4.63;1.42;;;11.80;63.70;;;;;;5102630;28;20184;-69
2023/04/11 12:53:04;;;;;;;2.40;1.08;;;11.80;64.60;;;;;;5098092;28;20239;-69
2023/04/11 12:55:31;;;;;;;5.07;1.42;;;11.80;64.70;;;;;;5101867;28;20245;-69